Time;durP1;ratioP1;P1;durP2;ratioP2;P2;SDS_P1;SDS_P2;PMS_P1;PMS_P2;Temp;Humidity;BMP_temperature;BMP_pressure;BME280_temperature;BME280_humidity;BME280_pressure;Samples;Min_cycle;Max_cycle;Signal;HPM_P1;HPM_P2
2021/10/08 00:00:50;;;;;;;6.77;6.07;;;12.50;74.60;;;;;;5114584;28;20466;-70
2021/10/08 00:03:17;;;;;;;11.50;6.33;;;12.40;74.10;;;;;;5114619;28;20443;-70
2021/10/08 00:05:43;;;;;;;6.83;6.10;;;12.40;74.20;;;;;;5114384;28;20443;-71
2021/10/08 00:08:10;;;;;;;8.30;6.70;;;12.30;74.30;;;;;;5115380;28;20771;-71
2021/10/08 00:10:37;;;;;;;6.03;5.50;;;12.30;74.30;;;;;;5114460;28;20463;-70
2021/10/08 00:13:05;;;;;;;5.60;5.10;;;12.30;74.90;;;;;;5114081;28;20899;-71
2021/10/08 00:15:32;;;;;;;6.40;5.80;;;12.30;74.80;;;;;;5114099;28;20446;-71
2021/10/08 00:17:59;;;;;;;6.60;5.90;;;12.30;74.80;;;;;;5114392;28;20443;-71
2021/10/08 00:20:25;;;;;;;6.50;5.83;;;12.20;74.60;;;;;;5114289;28;20463;-70
2021/10/08 00:22:52;;;;;;;7.70;6.07;;;12.20;74.70;;;;;;5114273;28;20455;-71
2021/10/08 00:25:19;;;;;;;7.10;6.23;;;12.20;74.50;;;;;;5113935;27;20438;-71
2021/10/08 00:27:46;;;;;;;8.10;7.00;;;12.20;74.50;;;;;;5114224;28;20450;-71
2021/10/08 00:30:14;;;;;;;8.67;7.67;;;12.20;74.30;;;;;;5113796;28;20468;-71
2021/10/08 00:32:40;;;;;;;7.27;6.47;;;12.10;74.20;;;;;;5114146;28;20447;-71
2021/10/08 00:35:08;;;;;;;8.33;6.43;;;12.10;74.10;;;;;;5114135;28;20842;-71
2021/10/08 00:37:35;;;;;;;7.50;5.97;;;12.10;74.60;;;;;;5114093;28;20457;-71
2021/10/08 00:40:01;;;;;;;7.93;7.13;;;12.10;74.40;;;;;;5113950;28;20474;-70
2021/10/08 00:42:30;;;;;;;8.17;6.00;;;12.00;74.50;;;;;;5114029;28;20450;-71
2021/10/08 00:44:57;;;;;;;7.80;5.67;;;12.00;74.50;;;;;;5114030;28;20443;-71
2021/10/08 00:47:25;;;;;;;5.67;5.17;;;12.00;74.30;;;;;;5113686;28;20936;-71
2021/10/08 00:49:52;;;;;;;9.13;6.10;;;12.00;74.30;;;;;;5113616;28;20469;-70
2021/10/08 00:52:19;;;;;;;5.73;5.23;;;11.90;74.30;;;;;;5113990;28;20470;-70
2021/10/08 00:54:46;;;;;;;5.40;5.00;;;11.90;73.80;;;;;;5114403;28;20566;-71
2021/10/08 00:57:13;;;;;;;5.87;5.40;;;11.90;74.00;;;;;;5113914;28;20445;-71
2021/10/08 00:59:42;;;;;;;4.97;4.57;;;11.80;73.80;;;;;;5113915;28;20470;-71
2021/10/08 01:02:08;;;;;;;5.93;4.53;;;11.80;74.00;;;;;;5116813;28;20928;-71
2021/10/08 01:04:36;;;;;;;4.43;4.13;;;11.80;74.30;;;;;;5118218;28;20443;-71
2021/10/08 01:07:03;;;;;;;4.37;4.07;;;11.70;74.40;;;;;;5117687;28;20458;-71
2021/10/08 01:09:30;;;;;;;4.53;4.13;;;11.70;74.50;;;;;;5117970;28;20463;-71
2021/10/08 01:11:57;;;;;;;5.03;4.63;;;11.70;74.50;;;;;;5117939;28;20439;-71
2021/10/08 01:14:24;;;;;;;5.43;4.93;;;11.70;74.40;;;;;;5117796;28;20490;-71
2021/10/08 01:16:51;;;;;;;4.90;4.50;;;11.70;74.30;;;;;;5117939;28;20470;-71
2021/10/08 01:19:17;;;;;;;5.20;4.80;;;11.60;74.70;;;;;;5117809;27;20867;-70
2021/10/08 01:21:46;;;;;;;5.27;4.83;;;11.60;74.50;;;;;;5117635;28;20990;-71
2021/10/08 01:24:13;;;;;;;4.80;4.40;;;11.60;74.60;;;;;;5117730;28;20439;-71
2021/10/08 01:26:40;;;;;;;4.20;3.90;;;11.50;74.50;;;;;;5117695;27;20449;-71
2021/10/08 01:29:09;;;;;;;4.20;3.90;;;11.50;74.20;;;;;;5117601;28;20473;-71
2021/10/08 01:31:36;;;;;;;4.10;3.80;;;11.40;74.30;;;;;;5117595;28;20468;-71
2021/10/08 01:34:03;;;;;;;3.97;3.67;;;11.40;74.60;;;;;;5117869;28;20486;-71
2021/10/08 01:36:30;;;;;;;4.23;3.93;;;11.40;74.60;;;;;;5117139;28;20443;-71
2021/10/08 01:38:58;;;;;;;3.23;3.03;;;11.40;74.40;;;;;;5117640;28;20458;-71
2021/10/08 01:41:25;;;;;;;4.03;3.57;;;11.40;74.60;;;;;;5117411;28;20458;-71
2021/10/08 01:43:52;;;;;;;3.77;3.47;;;11.30;74.60;;;;;;5117394;28;20442;-71
2021/10/08 01:46:19;;;;;;;3.77;3.57;;;11.30;75.70;;;;;;5117333;28;20805;-71
2021/10/08 01:48:46;;;;;;;4.40;4.07;;;11.30;74.70;;;;;;5117091;28;20442;-71
2021/10/08 01:51:13;;;;;;;4.43;4.03;;;11.30;74.60;;;;;;5117164;27;20450;-71
2021/10/08 01:53:40;;;;;;;4.03;3.73;;;11.30;74.70;;;;;;5117023;28;20485;-71
2021/10/08 01:56:08;;;;;;;4.40;4.00;;;11.30;74.70;;;;;;5117063;27;20443;-71
2021/10/08 01:58:35;;;;;;;3.73;3.30;;;11.20;74.50;;;;;;5116907;28;20447;-71
2021/10/08 02:01:03;;;;;;;4.70;4.40;;;11.20;74.60;;;;;;5116962;28;20449;-71
2021/10/08 02:03:29;;;;;;;4.00;3.70;;;11.20;74.60;;;;;;5116899;28;20453;-71
2021/10/08 02:05:56;;;;;;;4.13;3.50;;;11.20;74.70;;;;;;5116408;28;20466;-71
2021/10/08 02:08:23;;;;;;;4.40;4.10;;;11.20;74.90;;;;;;5116955;28;20431;-71
2021/10/08 02:10:50;;;;;;;3.63;3.33;;;11.10;74.80;;;;;;5117800;28;20529;-71
2021/10/08 02:13:19;;;;;;;3.70;3.40;;;11.20;75.30;;;;;;5116774;28;20454;-71
2021/10/08 02:15:46;;;;;;;4.40;4.10;;;11.10;75.00;;;;;;5116641;28;20451;-71
2021/10/08 02:18:13;;;;;;;4.63;4.23;;;11.10;75.20;;;;;;5116636;28;20434;-71
2021/10/08 02:20:40;;;;;;;4.40;3.90;;;11.10;75.00;;;;;;5116526;28;20462;-70
2021/10/08 02:23:08;;;;;;;3.70;3.40;;;11.10;75.10;;;;;;5116569;28;20508;-70
2021/10/08 02:25:35;;;;;;;3.90;3.60;;;11.10;74.90;;;;;;5116193;28;20534;-71
2021/10/08 02:28:02;;;;;;;4.23;3.90;;;11.10;74.60;;;;;;5116118;28;20434;-71
2021/10/08 02:30:30;;;;;;;4.20;3.60;;;11.10;74.60;;;;;;5116259;28;20463;-70
2021/10/08 02:32:56;;;;;;;4.50;4.10;;;11.00;74.90;;;;;;5116293;27;20439;-70
2021/10/08 02:35:23;;;;;;;4.07;3.70;;;11.00;74.90;;;;;;5115949;27;20990;-70
2021/10/08 02:37:50;;;;;;;3.90;3.50;;;11.00;75.00;;;;;;5116189;28;20450;-70
2021/10/08 02:40:17;;;;;;;3.33;3.03;;;10.90;75.00;;;;;;5116202;27;20463;-70
2021/10/08 02:42:43;;;;;;;3.50;3.23;;;10.90;75.30;;;;;;5116141;28;20820;-71
2021/10/08 02:45:10;;;;;;;3.50;2.80;;;10.90;75.00;;;;;;5116154;28;20446;-71
2021/10/08 02:47:38;;;;;;;2.87;2.67;;;10.80;74.50;;;;;;5115768;28;20970;-71
2021/10/08 02:50:06;;;;;;;4.13;2.80;;;10.80;74.10;;;;;;5115597;27;20995;-71
2021/10/08 02:52:33;;;;;;;2.80;2.60;;;10.80;74.40;;;;;;5116023;27;20516;-71
2021/10/08 02:55:00;;;;;;;2.80;2.60;;;10.80;74.70;;;;;;5116025;28;20479;-71
2021/10/08 02:57:26;;;;;;;3.23;3.03;;;10.80;74.70;;;;;;5116456;28;20454;-71
2021/10/08 02:59:53;;;;;;;2.97;2.77;;;10.80;74.60;;;;;;5116204;28;20474;-71
2021/10/08 03:02:20;;;;;;;3.33;3.13;;;10.70;74.60;;;;;;5115701;28;21054;-71
2021/10/08 03:04:48;;;;;;;3.07;2.87;;;10.70;74.10;;;;;;5115819;28;20439;-71
2021/10/08 03:07:15;;;;;;;3.53;3.23;;;10.60;73.70;;;;;;5115207;28;20455;-71
2021/10/08 03:09:42;;;;;;;5.23;3.70;;;10.60;74.10;;;;;;5115593;28;20470;-71
2021/10/08 03:12:08;;;;;;;3.77;3.47;;;10.60;74.30;;;;;;5116000;28;20442;-71
2021/10/08 03:14:35;;;;;;;3.70;3.40;;;10.60;74.50;;;;;;5115611;28;20528;-72
2021/10/08 03:17:02;;;;;;;6.00;3.77;;;10.60;74.70;;;;;;5115574;28;20443;-72
2021/10/08 03:19:29;;;;;;;4.37;3.97;;;10.60;74.50;;;;;;5115473;28;20461;-70
2021/10/08 03:21:57;;;;;;;3.50;3.30;;;10.50;74.30;;;;;;5115452;28;20443;-70
2021/10/08 03:24:24;;;;;;;4.50;3.90;;;10.50;74.60;;;;;;5114861;28;20447;-70
2021/10/08 03:26:50;;;;;;;4.00;3.60;;;10.50;74.70;;;;;;5115280;28;20447;-70
2021/10/08 03:29:17;;;;;;;3.47;3.17;;;10.50;74.50;;;;;;5114936;28;20458;-70
2021/10/08 03:31:44;;;;;;;3.27;3.07;;;10.50;74.70;;;;;;5115223;28;20447;-70
2021/10/08 03:34:10;;;;;;;2.97;2.70;;;10.50;74.60;;;;;;5115178;28;20479;-70
2021/10/08 03:36:42;;;;;;;3.77;3.50;;;10.40;74.60;;;;;;5116087;28;20814;-71
2021/10/08 03:39:13;;;;;;;3.03;2.83;;;10.50;75.00;;;;;;5115068;28;21039;-70
2021/10/08 03:41:42;;;;;;;3.30;3.00;;;10.50;75.10;;;;;;5115137;28;20431;-71
2021/10/08 03:44:09;;;;;;;3.57;3.30;;;10.50;75.20;;;;;;5114998;28;20446;-72
2021/10/08 03:46:40;;;;;;;2.60;2.40;;;10.50;75.30;;;;;;5114980;28;20447;-71
2021/10/08 03:49:14;;;;;;;4.97;2.87;;;10.50;75.30;;;;;;5114829;28;20550;-70
2021/10/08 03:51:42;;;;;;;4.53;3.63;;;10.50;75.60;;;;;;5114947;28;20438;-70
2021/10/08 03:54:11;;;;;;;4.17;3.77;;;10.50;75.80;;;;;;5114743;28;20447;-70
2021/10/08 03:56:38;;;;;;;3.37;3.07;;;10.40;75.60;;;;;;5114490;28;20454;-71
2021/10/08 03:59:05;;;;;;;3.93;3.53;;;10.40;75.80;;;;;;5114682;28;20462;-70
2021/10/08 04:01:31;;;;;;;4.70;2.90;;;10.40;75.80;;;;;;5114367;28;20426;-70
2021/10/08 04:03:58;;;;;;;6.13;3.73;;;10.30;75.60;;;;;;5114307;28;20932;-70
2021/10/08 04:06:25;;;;;;;3.40;3.10;;;10.30;75.50;;;;;;5114302;28;20466;-71
2021/10/08 04:08:52;;;;;;;3.60;3.30;;;10.30;75.20;;;;;;5114517;28;20466;-71
2021/10/08 04:11:20;;;;;;;4.47;3.93;;;10.30;75.10;;;;;;5114424;28;20450;-71
2021/10/08 04:13:47;;;;;;;2.93;2.63;;;10.30;75.30;;;;;;5114512;28;20454;-71
2021/10/08 04:16:14;;;;;;;3.57;3.27;;;10.20;75.30;;;;;;5114423;28;20467;-70
2021/10/08 04:18:40;;;;;;;4.60;3.73;;;10.20;75.40;;;;;;5114374;28;20445;-71
2021/10/08 04:21:07;;;;;;;4.00;3.23;;;10.20;75.40;;;;;;5114068;28;20438;-71
2021/10/08 04:23:34;;;;;;;3.53;3.23;;;10.20;75.50;;;;;;5114302;28;20443;-71
2021/10/08 04:26:01;;;;;;;5.73;3.60;;;10.10;75.60;;;;;;5114264;28;20449;-71
2021/10/08 04:28:29;;;;;;;3.67;3.37;;;10.10;75.50;;;;;;5113939;28;20439;-71
2021/10/08 04:30:56;;;;;;;3.90;3.60;;;10.10;75.60;;;;;;5114194;28;20814;-71
2021/10/08 04:33:25;;;;;;;4.20;3.90;;;10.00;75.50;;;;;;5114132;28;20450;-71
2021/10/08 04:35:52;;;;;;;3.67;3.37;;;10.00;75.50;;;;;;5113273;28;20515;-71
2021/10/08 04:38:19;;;;;;;4.73;4.23;;;10.00;75.40;;;;;;5114623;28;20819;-71
2021/10/08 04:40:46;;;;;;;5.00;4.60;;;9.90;76.50;;;;;;5114165;28;20477;-72
2021/10/08 04:43:13;;;;;;;5.63;3.77;;;9.90;76.50;;;;;;5116837;28;20450;-71
2021/10/08 04:45:41;;;;;;;3.53;3.23;;;9.90;76.60;;;;;;5113796;28;20937;-71
2021/10/08 04:48:08;;;;;;;4.00;3.60;;;9.90;76.80;;;;;;5114059;28;20439;-72
2021/10/08 04:50:35;;;;;;;4.67;4.20;;;9.90;76.70;;;;;;5113931;28;20841;-71
2021/10/08 04:53:16;;;;;;;4.27;3.80;;;9.90;76.70;;;;;;5113686;28;20447;-71
2021/10/08 04:55:43;;;;;;;5.27;4.80;;;9.90;77.10;;;;;;5113868;28;20462;-71
2021/10/08 04:58:10;;;;;;;5.93;5.30;;;9.90;77.00;;;;;;5113893;28;20450;-71
2021/10/08 05:00:37;;;;;;;7.30;5.50;;;9.90;76.90;;;;;;5113873;28;20470;-71
2021/10/08 05:03:10;;;;;;;6.03;5.43;;;9.90;77.10;;;;;;5113908;28;20805;-71
2021/10/08 05:05:37;;;;;;;8.23;6.83;;;9.90;77.20;;;;;;5114574;28;20446;-71
2021/10/08 05:08:05;;;;;;;7.53;6.87;;;9.80;77.40;;;;;;5113795;28;20446;-72
2021/10/08 05:10:32;;;;;;;7.87;7.10;;;9.80;77.50;;;;;;5113715;28;20470;-71
2021/10/08 05:12:59;;;;;;;9.93;8.23;;;9.80;77.40;;;;;;5113843;28;20442;-71
2021/10/08 05:15:26;;;;;;;8.80;7.90;;;9.80;77.50;;;;;;5113735;28;20470;-71
2021/10/08 05:17:53;;;;;;;9.60;7.60;;;9.80;77.80;;;;;;5113739;28;20511;-71
2021/10/08 05:20:21;;;;;;;9.70;7.10;;;9.80;78.00;;;;;;5113746;28;20824;-71
2021/10/08 05:22:48;;;;;;;9.57;6.90;;;9.80;78.20;;;;;;5113537;28;20442;-71
2021/10/08 05:25:15;;;;;;;8.83;6.67;;;9.80;78.20;;;;;;5113640;28;20439;-71
2021/10/08 05:27:42;;;;;;;7.50;5.93;;;9.80;78.40;;;;;;5113428;28;20443;-71
2021/10/08 05:30:10;;;;;;;8.73;6.17;;;9.80;78.40;;;;;;5113611;28;20825;-70
2021/10/08 05:32:37;;;;;;;7.50;5.20;;;9.80;78.50;;;;;;5113635;28;20431;-70
2021/10/08 05:35:04;;;;;;;5.50;4.27;;;9.80;78.40;;;;;;5113260;28;20478;-70
2021/10/08 05:37:32;;;;;;;4.37;3.97;;;9.80;78.00;;;;;;5113578;28;20450;-70
2021/10/08 05:39:59;;;;;;;5.70;4.07;;;9.80;77.70;;;;;;5113517;28;20863;-70
2021/10/08 05:42:26;;;;;;;4.50;3.43;;;9.70;77.20;;;;;;5113643;28;20453;-70
2021/10/08 05:44:53;;;;;;;3.80;3.47;;;9.70;76.90;;;;;;5113546;28;20445;-70
2021/10/08 05:47:20;;;;;;;4.40;3.20;;;9.70;77.10;;;;;;5114871;28;20450;-70
2021/10/08 05:49:46;;;;;;;4.20;3.50;;;9.70;77.10;;;;;;5117107;28;20466;-70
2021/10/08 05:52:13;;;;;;;6.47;3.97;;;9.70;77.20;;;;;;5117197;28;20882;-70
2021/10/08 05:54:41;;;;;;;9.10;4.50;;;9.60;76.90;;;;;;5117154;28;20449;-70
2021/10/08 05:57:08;;;;;;;3.73;3.40;;;9.60;77.10;;;;;;5117167;28;20965;-70
2021/10/08 05:59:35;;;;;;;3.43;3.13;;;9.60;77.20;;;;;;5116995;28;20463;-70
2021/10/08 06:02:02;;;;;;;4.00;3.37;;;9.60;77.30;;;;;;5117034;28;20450;-70
2021/10/08 06:04:28;;;;;;;5.90;3.47;;;9.50;77.40;;;;;;5116955;27;20469;-70
2021/10/08 06:06:55;;;;;;;4.63;3.30;;;9.60;77.70;;;;;;5116616;28;20451;-70
2021/10/08 06:09:22;;;;;;;6.43;3.50;;;9.60;77.90;;;;;;5116818;27;20488;-70
2021/10/08 06:11:50;;;;;;;3.67;3.37;;;9.60;77.90;;;;;;5116837;28;20443;-70
2021/10/08 06:14:17;;;;;;;3.77;3.47;;;9.60;77.90;;;;;;5116747;28;20450;-70
2021/10/08 06:16:44;;;;;;;3.60;3.30;;;9.60;78.20;;;;;;5116338;28;20996;-71
2021/10/08 06:19:10;;;;;;;4.80;3.00;;;9.60;78.20;;;;;;5116683;28;20470;-71
2021/10/08 06:21:37;;;;;;;3.30;3.00;;;9.60;78.30;;;;;;5116640;27;20439;-71
2021/10/08 06:24:04;;;;;;;3.63;3.10;;;9.60;78.60;;;;;;5116613;28;20450;-71
2021/10/08 06:26:31;;;;;;;4.20;3.80;;;9.60;78.50;;;;;;5119268;28;20435;-71
2021/10/08 06:28:59;;;;;;;4.10;3.70;;;9.60;78.70;;;;;;5116473;28;20476;-70
2021/10/08 06:31:26;;;;;;;3.60;3.27;;;9.60;78.70;;;;;;5116505;28;20499;-71
2021/10/08 06:33:52;;;;;;;3.97;3.60;;;9.60;79.00;;;;;;5116403;28;20443;-71
2021/10/08 06:36:19;;;;;;;5.30;3.77;;;9.60;79.20;;;;;;5116360;28;20899;-71
2021/10/08 06:38:46;;;;;;;4.40;3.40;;;9.60;79.30;;;;;;5116035;28;20936;-70
2021/10/08 06:41:12;;;;;;;6.20;3.20;;;9.60;79.40;;;;;;5116567;28;20450;-70
2021/10/08 06:43:40;;;;;;;10.23;3.90;;;9.70;79.70;;;;;;5115929;28;20937;-70
2021/10/08 06:46:08;;;;;;;4.43;3.30;;;9.70;79.70;;;;;;5116110;28;20434;-70
2021/10/08 06:48:34;;;;;;;8.80;3.73;;;9.70;79.80;;;;;;5116071;28;20778;-72
2021/10/08 06:51:01;;;;;;;11.10;3.90;;;9.70;80.00;;;;;;5115756;28;20454;-71
2021/10/08 06:53:28;;;;;;;8.97;3.83;;;9.70;80.10;;;;;;5116038;27;20450;-71
2021/10/08 06:55:55;;;;;;;5.93;4.07;;;9.80;80.40;;;;;;5115858;28;20478;-72
2021/10/08 06:58:21;;;;;;;4.87;3.90;;;9.80;80.60;;;;;;5114838;28;20438;-71
2021/10/08 07:00:52;;;;;;;11.30;4.53;;;9.80;80.80;;;;;;5115775;28;20485;-70
2021/10/08 07:03:20;;;;;;;9.73;3.90;;;9.80;81.10;;;;;;5116072;28;20817;-70
2021/10/08 07:05:47;;;;;;;6.30;4.67;;;9.90;81.50;;;;;;5115906;28;20813;-70
2021/10/08 07:08:14;;;;;;;9.23;5.73;;;9.90;81.70;;;;;;5116037;28;20427;-70
2021/10/08 07:10:41;;;;;;;7.63;6.30;;;10.00;81.10;;;;;;5115718;28;20467;-70
2021/10/08 07:13:08;;;;;;;10.07;6.70;;;10.00;81.40;;;;;;5115617;28;20504;-70
2021/10/08 07:15:34;;;;;;;9.17;6.73;;;10.10;82.10;;;;;;5115541;28;20478;-70
2021/10/08 07:18:01;;;;;;;8.20;6.00;;;10.10;82.40;;;;;;5115553;28;20458;-70
2021/10/08 07:20:30;;;;;;;6.63;5.93;;;10.20;82.80;;;;;;5115334;28;20470;-70
2021/10/08 07:22:58;;;;;;;8.47;5.83;;;10.20;83.00;;;;;;5115481;28;20447;-70
2021/10/08 07:25:26;;;;;;;12.70;5.60;;;10.30;83.10;;;;;;5115380;28;20451;-71
2021/10/08 07:27:53;;;;;;;7.20;6.03;;;10.40;83.30;;;;;;5115033;28;21049;-71
2021/10/08 07:30:21;;;;;;;6.17;5.30;;;10.50;83.50;;;;;;5115280;28;20467;-70
2021/10/08 07:32:48;;;;;;;6.60;4.93;;;10.50;83.80;;;;;;5115283;28;20458;-70
2021/10/08 07:35:16;;;;;;;6.97;6.27;;;10.60;84.20;;;;;;5114817;28;20928;-70
2021/10/08 07:37:44;;;;;;;8.70;6.70;;;10.60;84.60;;;;;;5115166;28;20454;-70
2021/10/08 07:40:13;;;;;;;8.10;5.57;;;10.70;85.30;;;;;;5114770;28;20466;-70
2021/10/08 07:42:39;;;;;;;8.57;6.10;;;10.80;85.90;;;;;;5114709;28;20963;-70
2021/10/08 07:45:08;;;;;;;8.43;6.80;;;10.80;85.80;;;;;;5114851;28;20928;-70
2021/10/08 07:47:35;;;;;;;7.00;6.30;;;10.90;86.20;;;;;;5115759;28;20443;-70
2021/10/08 07:50:02;;;;;;;7.87;6.73;;;11.00;86.30;;;;;;5115103;28;20470;-70
2021/10/08 07:52:29;;;;;;;8.47;6.60;;;11.10;86.50;;;;;;5114843;28;20449;-70
2021/10/08 07:54:57;;;;;;;10.10;6.27;;;11.20;86.40;;;;;;5114840;28;20461;-70
2021/10/08 07:57:24;;;;;;;7.90;7.10;;;11.20;86.40;;;;;;5114412;28;20490;-70
2021/10/08 07:59:50;;;;;;;7.43;6.27;;;11.30;86.50;;;;;;5114746;28;20466;-70
2021/10/08 08:02:17;;;;;;;9.73;7.33;;;11.40;86.20;;;;;;5114658;27;20786;-70
2021/10/08 08:04:44;;;;;;;8.70;7.60;;;11.50;85.60;;;;;;5114631;28;20447;-70
2021/10/08 08:07:10;;;;;;;9.30;7.50;;;11.60;85.60;;;;;;5114120;28;20940;-71
2021/10/08 08:09:37;;;;;;;9.90;7.80;;;11.70;85.60;;;;;;5114357;28;20462;-70
2021/10/08 08:12:06;;;;;;;8.10;7.00;;;11.70;85.30;;;;;;5114624;28;20447;-70
2021/10/08 08:14:33;;;;;;;8.27;7.47;;;11.80;84.90;;;;;;5114624;28;20450;-70
2021/10/08 08:16:59;;;;;;;8.50;6.77;;;11.90;85.40;;;;;;5114983;28;20514;-70
2021/10/08 08:19:26;;;;;;;11.17;9.93;;;11.90;86.10;;;;;;5113990;28;20459;-70
2021/10/08 08:21:53;;;;;;;8.80;7.40;;;12.00;86.00;;;;;;5127316;22;20481;-76
2021/10/08 08:24:19;;;;;;;8.00;7.20;;;12.10;87.10;;;;;;5053760;28;20807;-76
2021/10/08 08:26:46;;;;;;;10.57;8.87;;;12.20;86.40;;;;;;5053690;28;20442;-76
2021/10/08 08:29:14;;;;;;;10.03;9.00;;;12.30;85.80;;;;;;5053574;28;20453;-76
2021/10/08 08:31:41;;;;;;;15.10;8.70;;;12.40;86.10;;;;;;5053575;28;20445;-76
2021/10/08 08:34:08;;;;;;;12.47;9.87;;;12.50;86.10;;;;;;5053554;28;20445;-76
2021/10/08 08:36:35;;;;;;;13.90;10.70;;;12.60;86.10;;;;;;5053402;28;20485;-76
2021/10/08 08:39:07;;;;;;;9.70;8.70;;;12.70;86.60;;;;;;5053528;28;20445;-76
2021/10/08 08:41:34;;;;;;;10.77;9.67;;;12.80;87.10;;;;;;5053110;28;20938;-76
2021/10/08 08:44:00;;;;;;;12.83;10.33;;;12.90;87.40;;;;;;5053410;28;20452;-76
2021/10/08 08:46:29;;;;;;;16.33;10.37;;;13.00;87.30;;;;;;5053369;28;20433;-76
2021/10/08 08:48:55;;;;;;;14.63;11.10;;;13.10;88.30;;;;;;5053404;28;20457;-76
2021/10/08 08:51:25;;;;;;;11.17;10.00;;;13.20;89.50;;;;;;5053423;28;20483;-76
2021/10/08 08:53:52;;;;;;;11.67;10.20;;;13.20;89.70;;;;;;5053391;28;20450;-76
2021/10/08 08:56:19;;;;;;;13.70;10.33;;;13.30;89.70;;;;;;5053292;28;20477;-76
2021/10/08 08:58:46;;;;;;;12.20;10.97;;;13.40;89.60;;;;;;5053004;28;20935;-75
2021/10/08 09:01:12;;;;;;;13.87;10.20;;;13.50;89.80;;;;;;5053150;28;20460;-76
2021/10/08 09:04:00;;;;;;;13.40;10.53;;;13.60;90.10;;;;;;5052933;28;21081;-76
2021/10/08 09:06:31;;;;;;;10.47;9.43;;;13.70;90.00;;;;;;5053360;28;20422;-76
2021/10/08 09:08:57;;;;;;;14.70;11.60;;;13.80;90.00;;;;;;5053248;28;20434;-74
2021/10/08 09:11:37;;;;;;;13.20;11.47;;;13.90;89.40;;;;;;5052939;28;20938;-75
2021/10/08 09:14:18;;;;;;;13.07;11.70;;;14.00;89.20;;;;;;5053217;28;20483;-75
2021/10/08 09:17:11;;;;;;;11.60;10.07;;;14.10;89.10;;;;;;5053069;28;20861;-76
2021/10/08 09:19:52;;;;;;;11.90;9.70;;;14.30;88.70;;;;;;5053152;28;20434;-75
2021/10/08 09:22:20;;;;;;;14.40;11.20;;;14.40;87.70;;;;;;5054209;28;20480;-74
2021/10/08 09:24:47;;;;;;;16.63;10.13;;;14.50;87.70;;;;;;5057005;28;20977;-76
2021/10/08 09:27:16;;;;;;;15.13;10.97;;;14.60;87.80;;;;;;5059661;28;20445;-76
2021/10/08 09:29:51;;;;;;;19.63;12.43;;;14.70;87.20;;;;;;5059277;28;20444;-76
2021/10/08 09:32:20;;;;;;;12.10;9.93;;;14.80;86.30;;;;;;5056894;28;20876;-74
2021/10/08 09:34:49;;;;;;;11.50;10.00;;;15.00;87.30;;;;;;5056761;28;20954;-75
2021/10/08 09:37:17;;;;;;;11.07;9.63;;;15.10;87.50;;;;;;5056972;28;20483;-75
2021/10/08 09:39:50;;;;;;;10.97;9.87;;;15.30;87.40;;;;;;5057019;28;20495;-75
2021/10/08 09:42:19;;;;;;;13.93;9.83;;;15.40;87.10;;;;;;5056827;28;20515;-74
2021/10/08 09:44:47;;;;;;;15.37;10.10;;;15.70;86.40;;;;;;5056850;28;20476;-74
2021/10/08 09:47:15;;;;;;;14.20;9.90;;;15.90;85.50;;;;;;5056396;28;20915;-75
2021/10/08 09:49:44;;;;;;;11.70;8.93;;;16.20;85.40;;;;;;5056702;28;20511;-74
2021/10/08 09:52:26;;;;;;;11.13;8.87;;;16.40;83.10;;;;;;5056628;28;20469;-75
2021/10/08 09:54:54;;;;;;;9.37;8.20;;;16.70;81.60;;;;;;5057241;28;20445;-75
2021/10/08 09:57:22;;;;;;;9.80;8.80;;;17.00;79.70;;;;;;5056385;28;20481;-75
2021/10/08 09:59:50;;;;;;;9.93;6.80;;;17.40;78.20;;;;;;5056296;28;20813;-75
2021/10/08 10:02:17;;;;;;;8.00;7.20;;;17.80;77.20;;;;;;5056270;28;20803;-75
2021/10/08 10:04:49;;;;;;;8.53;7.57;;;18.40;75.30;;;;;;5056215;28;20446;-75
2021/10/08 10:07:18;;;;;;;7.13;6.53;;;18.90;72.70;;;;;;5056774;28;20448;-75
2021/10/08 10:09:46;;;;;;;7.20;6.37;;;19.50;70.30;;;;;;5056192;28;20449;-73
2021/10/08 10:12:14;;;;;;;7.23;6.53;;;20.00;67.50;;;;;;5056161;28;20494;-74
2021/10/08 10:14:44;;;;;;;8.03;7.23;;;20.60;64.60;;;;;;5056179;28;20495;-73
2021/10/08 10:17:11;;;;;;;7.30;6.10;;;21.10;62.70;;;;;;5055984;28;20511;-74
2021/10/08 10:19:41;;;;;;;6.83;6.03;;;21.70;60.50;;;;;;5055993;28;20817;-73
2021/10/08 10:22:08;;;;;;;8.60;6.50;;;22.20;58.40;;;;;;5055766;28;20513;-74
2021/10/08 10:24:39;;;;;;;6.93;6.17;;;22.70;56.20;;;;;;5056196;28;20434;-74
2021/10/08 10:27:07;;;;;;;7.00;6.40;;;23.20;55.50;;;;;;5055958;28;20429;-73
2021/10/08 10:29:36;;;;;;;9.30;7.27;;;23.70;54.40;;;;;;5055822;28;20809;-73
2021/10/08 10:32:05;;;;;;;7.90;7.10;;;24.30;52.70;;;;;;5055908;28;20462;-73
2021/10/08 10:34:34;;;;;;;7.23;6.43;;;24.80;51.90;;;;;;5054472;28;20445;-73
2021/10/08 10:37:00;;;;;;;8.03;6.67;;;25.30;50.10;;;;;;5055686;28;20473;-73
2021/10/08 10:39:27;;;;;;;6.87;5.63;;;25.80;48.70;;;;;;5055715;28;20441;-74
2021/10/08 10:42:17;;;;;;;6.63;6.03;;;26.30;47.40;;;;;;5055744;28;20469;-74
2021/10/08 10:45:06;;;;;;;8.97;5.40;;;26.80;44.70;;;;;;5055566;28;20442;-73
2021/10/08 10:47:35;;;;;;;7.37;5.83;;;27.30;43.90;;;;;;5055533;28;20460;-73
2021/10/08 10:50:18;;;;;;;7.70;6.87;;;27.70;42.40;;;;;;5055139;28;20935;-73
2021/10/08 10:52:51;;;;;;;6.23;5.73;;;28.10;41.60;;;;;;5055454;28;20457;-73
2021/10/08 10:55:19;;;;;;;5.77;5.27;;;28.40;40.40;;;;;;5055355;28;20452;-73
2021/10/08 10:57:59;;;;;;;7.93;7.13;;;28.80;39.90;;;;;;5055306;28;20469;-73
2021/10/08 11:00:30;;;;;;;6.80;6.20;;;29.10;39.30;;;;;;5055035;28;20899;-73
2021/10/08 11:03:02;;;;;;;5.73;5.10;;;29.40;38.90;;;;;;5055195;28;20480;-75
2021/10/08 11:05:30;;;;;;;8.20;6.73;;;29.70;38.20;;;;;;5055073;28;20438;-75
2021/10/08 11:08:08;;;;;;;6.30;5.73;;;30.00;37.20;;;;;;5055176;28;20449;-75
2021/10/08 11:10:36;;;;;;;7.27;6.57;;;30.40;36.40;;;;;;5054986;28;20445;-75
2021/10/08 11:13:27;;;;;;;6.40;5.63;;;30.70;35.50;;;;;;5054936;28;20481;-75
2021/10/08 11:15:56;;;;;;;6.40;5.80;;;30.90;34.80;;;;;;5054963;28;20539;-74
2021/10/08 11:18:36;;;;;;;5.77;5.37;;;31.10;33.90;;;;;;5054472;28;20503;-75
2021/10/08 11:21:03;;;;;;;5.43;4.93;;;31.40;33.90;;;;;;5054832;28;20524;-75
2021/10/08 11:23:32;;;;;;;5.43;5.00;;;31.60;34.00;;;;;;5054395;28;20473;-74
2021/10/08 11:26:01;;;;;;;5.40;4.97;;;31.90;33.40;;;;;;5054737;28;20449;-74
2021/10/08 11:28:32;;;;;;;4.60;4.23;;;32.20;32.90;;;;;;5054685;28;20444;-74
2021/10/08 11:30:59;;;;;;;6.27;5.60;;;32.50;32.20;;;;;;5054288;28;20432;-74
2021/10/08 11:33:44;;;;;;;5.43;5.03;;;32.80;30.80;;;;;;5054495;28;20469;-74
2021/10/08 11:36:23;;;;;;;4.80;4.40;;;33.10;30.30;;;;;;5054573;28;20421;-74
2021/10/08 11:38:53;;;;;;;5.30;4.20;;;33.40;30.90;;;;;;5054205;28;20922;-74
2021/10/08 11:41:23;;;;;;;4.77;4.37;;;33.70;30.60;;;;;;5054520;28;20440;-74
2021/10/08 11:44:05;;;;;;;4.93;4.53;;;34.00;30.00;;;;;;5054249;28;20472;-73
2021/10/08 11:46:37;;;;;;;4.33;4.00;;;34.30;29.10;;;;;;5053949;28;20433;-74
2021/10/08 11:49:19;;;;;;;4.20;3.47;;;34.60;28.40;;;;;;5054348;28;20563;-74
2021/10/08 11:51:46;;;;;;;5.07;3.40;;;34.80;27.60;;;;;;5054072;28;20579;-76
2021/10/08 11:54:19;;;;;;;3.90;3.10;;;35.20;27.60;;;;;;5054016;28;20444;-75
2021/10/08 11:56:59;;;;;;;3.37;3.13;;;35.40;27.30;;;;;;5054021;28;20465;-76
2021/10/08 11:59:27;;;;;;;3.90;2.90;;;35.70;27.00;;;;;;5054069;28;20834;-76
2021/10/08 12:02:08;;;;;;;3.17;2.70;;;35.90;26.40;;;;;;5053824;28;20477;-74
2021/10/08 12:04:35;;;;;;;3.77;3.10;;;36.20;26.10;;;;;;5053983;28;20432;-76
2021/10/08 12:07:07;;;;;;;3.20;2.90;;;36.40;25.70;;;;;;5053930;28;20194;-74
2021/10/08 12:09:34;;;;;;;8.23;2.80;;;36.60;25.50;;;;;;5053650;28;20183;-74
2021/10/08 12:12:08;;;;;;;3.00;2.80;;;36.80;25.40;;;;;;5053673;28;20222;-74
2021/10/08 12:14:43;;;;;;;3.87;2.67;;;37.00;24.80;;;;;;5053421;28;20186;-75
2021/10/08 12:17:12;;;;;;;10.48;3.17;;;37.10;24.80;;;;;;5053451;28;20572;-76
2021/10/08 12:19:39;;;;;;;3.28;2.83;;;37.30;24.60;;;;;;5053657;28;20354;-76
2021/10/08 12:22:05;;;;;;;3.38;2.72;;;37.40;24.10;;;;;;5053357;28;20226;-76
2021/10/08 12:24:33;;;;;;;3.40;3.10;;;37.50;24.00;;;;;;5053566;28;20202;-76
2021/10/08 12:27:02;;;;;;;3.05;2.47;;;37.60;24.10;;;;;;5053518;28;20195;-76
2021/10/08 12:29:40;;;;;;;2.60;2.15;;;37.70;24.10;;;;;;5053483;28;20207;-75
2021/10/08 12:32:11;;;;;;;3.38;2.90;;;37.90;24.20;;;;;;5053468;28;20226;-75
2021/10/08 12:34:40;;;;;;;2.60;2.20;;;38.10;23.90;;;;;;5053557;28;20565;-76
2021/10/08 12:37:09;;;;;;;2.58;2.38;;;38.30;23.70;;;;;;5053290;28;20233;-75
2021/10/08 12:39:38;;;;;;;3.95;2.38;;;38.50;23.70;;;;;;5054260;28;20206;-76
2021/10/08 12:42:18;;;;;;;3.50;2.60;;;38.70;23.20;;;;;;5053322;28;20218;-76
2021/10/08 12:44:51;;;;;;;3.83;2.10;;;38.80;22.80;;;;;;5053445;28;20186;-76
2021/10/08 12:47:24;;;;;;;2.70;2.50;;;39.00;22.60;;;;;;5052927;28;20572;-75
2021/10/08 12:49:53;;;;;;;3.47;3.10;;;39.10;22.50;;;;;;5053274;28;20187;-74
2021/10/08 12:52:33;;;;;;;6.22;2.75;;;39.20;22.40;;;;;;5052881;28;20240;-75
2021/10/08 12:55:06;;;;;;;2.45;2.25;;;39.30;21.60;;;;;;5052924;28;20632;-75